sensor_id;sensor_type;location;lat;lon;timestamp;temperature;humidity
58469;DHT22;44257;44.804;10.220;2022-12-07T00:01:17;5.40;99.90
58469;DHT22;44257;44.804;10.220;2022-12-07T00:03:43;5.40;99.90
58469;DHT22;44257;44.804;10.220;2022-12-07T00:06:12;5.40;99.90
58469;DHT22;44257;44.804;10.220;2022-12-07T00:08:38;5.40;99.90
58469;DHT22;44257;44.804;10.220;2022-12-07T00:11:09;5.40;99.90
58469;DHT22;44257;44.804;10.220;2022-12-07T00:13:36;5.40;99.90
58469;DHT22;44257;44.804;10.220;2022-12-07T00:16:37;5.40;99.90
58469;DHT22;44257;44.804;10.220;2022-12-07T00:18:56;5.40;99.90
58469;DHT22;44257;44.804;10.220;2022-12-07T00:21:28;5.40;99.90
58469;DHT22;44257;44.804;10.220;2022-12-07T00:23:55;5.40;99.90
58469;DHT22;44257;44.804;10.220;2022-12-07T00:26:33;5.40;99.90
58469;DHT22;44257;44.804;10.220;2022-12-07T00:29:03;5.40;99.90
58469;DHT22;44257;44.804;10.220;2022-12-07T00:31:33;5.30;99.90
58469;DHT22;44257;44.804;10.220;2022-12-07T00:34:00;5.20;99.90
58469;DHT22;44257;44.804;10.220;2022-12-07T00:36:26;5.20;99.90
58469;DHT22;44257;44.804;10.220;2022-12-07T00:38:57;5.10;99.90
58469;DHT22;44257;44.804;10.220;2022-12-07T00:41:24;5.10;99.90
58469;DHT22;44257;44.804;10.220;2022-12-07T00:43:50;5.10;99.90
58469;DHT22;44257;44.804;10.220;2022-12-07T00:46:17;5.00;99.90
58469;DHT22;44257;44.804;10.220;2022-12-07T00:48:44;4.90;99.90
58469;DHT22;44257;44.804;10.220;2022-12-07T00:51:12;4.90;99.90
58469;DHT22;44257;44.804;10.220;2022-12-07T00:53:38;5.00;99.90
58469;DHT22;44257;44.804;10.220;2022-12-07T00:56:19;4.90;99.90
58469;DHT22;44257;44.804;10.220;2022-12-07T00:58:53;4.90;99.90
58469;DHT22;44257;44.804;10.220;2022-12-07T01:01:19;5.00;99.90
58469;DHT22;44257;44.804;10.220;2022-12-07T01:03:45;5.10;99.90
58469;DHT22;44257;44.804;10.220;2022-12-07T01:06:15;5.10;99.90
58469;DHT22;44257;44.804;10.220;2022-12-07T01:08:41;5.10;99.90
58469;DHT22;44257;44.804;10.220;2022-12-07T01:11:09;5.10;99.90
58469;DHT22;44257;44.804;10.220;2022-12-07T01:13:35;5.10;99.90
58469;DHT22;44257;44.804;10.220;2022-12-07T01:16:03;5.10;99.90
58469;DHT22;44257;44.804;10.220;2022-12-07T01:18:32;5.10;99.90
58469;DHT22;44257;44.804;10.220;2022-12-07T01:21:11;5.20;99.90
58469;DHT22;44257;44.804;10.220;2022-12-07T01:23:38;5.20;99.90
58469;DHT22;44257;44.804;10.220;2022-12-07T01:26:07;5.20;99.90
58469;DHT22;44257;44.804;10.220;2022-12-07T01:28:33;5.30;99.90
58469;DHT22;44257;44.804;10.220;2022-12-07T01:31:04;5.40;99.90
58469;DHT22;44257;44.804;10.220;2022-12-07T01:33:32;5.40;99.90
58469;DHT22;44257;44.804;10.220;2022-12-07T01:38:38;5.40;99.90
58469;DHT22;44257;44.804;10.220;2022-12-07T01:41:04;5.40;99.90
58469;DHT22;44257;44.804;10.220;2022-12-07T01:43:33;5.40;99.90
58469;DHT22;44257;44.804;10.220;2022-12-07T01:46:00;5.40;99.90
58469;DHT22;44257;44.804;10.220;2022-12-07T01:51:03;5.40;99.90
58469;DHT22;44257;44.804;10.220;2022-12-07T01:53:30;5.40;99.90
58469;DHT22;44257;44.804;10.220;2022-12-07T01:55:59;5.40;99.90
58469;DHT22;44257;44.804;10.220;2022-12-07T01:58:25;5.50;99.90
58469;DHT22;44257;44.804;10.220;2022-12-07T02:00:51;5.50;99.90
58469;DHT22;44257;44.804;10.220;2022-12-07T02:03:33;5.40;99.90
58469;DHT22;44257;44.804;10.220;2022-12-07T02:06:00;5.40;99.90
58469;DHT22;44257;44.804;10.220;2022-12-07T02:08:26;5.40;99.90
58469;DHT22;44257;44.804;10.220;2022-12-07T02:10:52;5.50;99.90
58469;DHT22;44257;44.804;10.220;2022-12-07T02:13:26;5.50;99.90
58469;DHT22;44257;44.804;10.220;2022-12-07T02:34:50;5.40;99.90
58469;DHT22;44257;44.804;10.220;2022-12-07T02:37:45;5.50;99.90
58469;DHT22;44257;44.804;10.220;2022-12-07T02:40:21;5.50;99.90
58469;DHT22;44257;44.804;10.220;2022-12-07T02:45:42;5.40;99.90
58469;DHT22;44257;44.804;10.220;2022-12-07T02:48:12;5.40;99.90
58469;DHT22;44257;44.804;10.220;2022-12-07T02:50:51;5.30;99.90
58469;DHT22;44257;44.804;10.220;2022-12-07T02:53:30;5.20;99.90
58469;DHT22;44257;44.804;10.220;2022-12-07T02:55:56;5.10;99.90
58469;DHT22;44257;44.804;10.220;2022-12-07T03:01:20;5.00;99.90
58469;DHT22;44257;44.804;10.220;2022-12-07T03:06:57;5.00;99.90
58469;DHT22;44257;44.804;10.220;2022-12-07T03:09:32;4.90;99.90
58469;DHT22;44257;44.804;10.220;2022-12-07T03:12:12;4.90;99.90
58469;DHT22;44257;44.804;10.220;2022-12-07T03:14:50;4.90;99.90
58469;DHT22;44257;44.804;10.220;2022-12-07T03:17:22;4.70;99.90
58469;DHT22;44257;44.804;10.220;2022-12-07T03:19:52;4.60;99.90
58469;DHT22;44257;44.804;10.220;2022-12-07T03:22:20;4.60;99.90
58469;DHT22;44257;44.804;10.220;2022-12-07T03:24:53;4.60;99.90
58469;DHT22;44257;44.804;10.220;2022-12-07T03:27:32;4.60;99.90
58469;DHT22;44257;44.804;10.220;2022-12-07T03:30:02;4.50;99.90
58469;DHT22;44257;44.804;10.220;2022-12-07T03:32:39;4.50;99.90
58469;DHT22;44257;44.804;10.220;2022-12-07T03:35:17;4.50;99.90
58469;DHT22;44257;44.804;10.220;2022-12-07T03:37:48;4.40;99.90
58469;DHT22;44257;44.804;10.220;2022-12-07T03:40:35;4.40;99.90
58469;DHT22;44257;44.804;10.220;2022-12-07T03:43:03;4.40;99.90
58469;DHT22;44257;44.804;10.220;2022-12-07T03:45:40;4.30;99.90
58469;DHT22;44257;44.804;10.220;2022-12-07T03:53:48;4.40;99.90
58469;DHT22;44257;44.804;10.220;2022-12-07T03:56:16;4.40;99.90
58469;DHT22;44257;44.804;10.220;2022-12-07T03:58:42;4.40;99.90
58469;DHT22;44257;44.804;10.220;2022-12-07T04:01:08;4.50;99.90
58469;DHT22;44257;44.804;10.220;2022-12-07T04:03:34;4.50;99.90
58469;DHT22;44257;44.804;10.220;2022-12-07T04:06:00;4.40;99.90
58469;DHT22;44257;44.804;10.220;2022-12-07T04:08:26;4.30;99.90
58469;DHT22;44257;44.804;10.220;2022-12-07T04:10:52;4.20;99.90
58469;DHT22;44257;44.804;10.220;2022-12-07T04:13:18;4.20;99.90
58469;DHT22;44257;44.804;10.220;2022-12-07T04:15:44;4.10;99.90
58469;DHT22;44257;44.804;10.220;2022-12-07T04:18:10;4.10;99.90
58469;DHT22;44257;44.804;10.220;2022-12-07T04:20:35;4.00;99.90
58469;DHT22;44257;44.804;10.220;2022-12-07T04:23:01;4.00;99.90
58469;DHT22;44257;44.804;10.220;2022-12-07T04:25:28;4.00;99.90
58469;DHT22;44257;44.804;10.220;2022-12-07T04:27:53;4.10;99.90
58469;DHT22;44257;44.804;10.220;2022-12-07T04:30:19;4.00;99.90
58469;DHT22;44257;44.804;10.220;2022-12-07T04:32:45;4.00;99.90
58469;DHT22;44257;44.804;10.220;2022-12-07T04:35:11;4.10;99.90
58469;DHT22;44257;44.804;10.220;2022-12-07T04:37:36;4.10;99.90
58469;DHT22;44257;44.804;10.220;2022-12-07T04:40:06;4.10;99.90
58469;DHT22;44257;44.804;10.220;2022-12-07T04:42:33;4.00;99.90
58469;DHT22;44257;44.804;10.220;2022-12-07T04:44:59;3.90;99.90
58469;DHT22;44257;44.804;10.220;2022-12-07T04:47:24;3.90;99.90
58469;DHT22;44257;44.804;10.220;2022-12-07T04:49:50;3.90;99.90
58469;DHT22;44257;44.804;10.220;2022-12-07T04:52:16;3.80;99.90
58469;DHT22;44257;44.804;10.220;2022-12-07T04:54:42;3.80;99.90
58469;DHT22;44257;44.804;10.220;2022-12-07T04:57:07;3.90;99.90
58469;DHT22;44257;44.804;10.220;2022-12-07T04:59:34;3.80;99.90
58469;DHT22;44257;44.804;10.220;2022-12-07T05:01:59;3.80;99.90
58469;DHT22;44257;44.804;10.220;2022-12-07T05:04:25;3.60;99.90
58469;DHT22;44257;44.804;10.220;2022-12-07T05:06:51;3.60;99.90
58469;DHT22;44257;44.804;10.220;2022-12-07T05:09:17;3.60;99.90
58469;DHT22;44257;44.804;10.220;2022-12-07T05:11:43;3.60;99.90
58469;DHT22;44257;44.804;10.220;2022-12-07T05:14:19;3.50;99.90
58469;DHT22;44257;44.804;10.220;2022-12-07T05:16:48;3.40;99.90
58469;DHT22;44257;44.804;10.220;2022-12-07T05:19:14;3.30;99.90
58469;DHT22;44257;44.804;10.220;2022-12-07T05:21:41;3.20;99.90
58469;DHT22;44257;44.804;10.220;2022-12-07T05:24:08;3.20;99.90
58469;DHT22;44257;44.804;10.220;2022-12-07T05:26:36;3.20;99.90
58469;DHT22;44257;44.804;10.220;2022-12-07T05:29:02;3.20;99.90
58469;DHT22;44257;44.804;10.220;2022-12-07T05:31:28;3.10;99.90
58469;DHT22;44257;44.804;10.220;2022-12-07T05:33:54;3.00;99.90
58469;DHT22;44257;44.804;10.220;2022-12-07T05:36:20;2.90;99.90
58469;DHT22;44257;44.804;10.220;2022-12-07T05:38:46;2.90;99.90
58469;DHT22;44257;44.804;10.220;2022-12-07T05:41:15;3.00;99.90
58469;DHT22;44257;44.804;10.220;2022-12-07T05:44:00;2.90;99.90
58469;DHT22;44257;44.804;10.220;2022-12-07T05:46:26;2.80;99.90
58469;DHT22;44257;44.804;10.220;2022-12-07T05:48:52;2.80;99.90
58469;DHT22;44257;44.804;10.220;2022-12-07T05:51:18;2.80;99.90
58469;DHT22;44257;44.804;10.220;2022-12-07T05:53:45;2.80;99.90
58469;DHT22;44257;44.804;10.220;2022-12-07T05:56:11;2.70;99.90
58469;DHT22;44257;44.804;10.220;2022-12-07T05:58:37;2.60;99.90
58469;DHT22;44257;44.804;10.220;2022-12-07T06:01:21;2.50;99.90
58469;DHT22;44257;44.804;10.220;2022-12-07T06:03:47;2.50;99.90
58469;DHT22;44257;44.804;10.220;2022-12-07T06:06:13;2.40;99.90
58469;DHT22;44257;44.804;10.220;2022-12-07T06:08:38;2.40;99.90
58469;DHT22;44257;44.804;10.220;2022-12-07T06:11:04;2.30;99.90
58469;DHT22;44257;44.804;10.220;2022-12-07T06:13:48;2.30;99.90
58469;DHT22;44257;44.804;10.220;2022-12-07T06:16:14;2.20;99.90
58469;DHT22;44257;44.804;10.220;2022-12-07T06:18:40;2.20;99.90
58469;DHT22;44257;44.804;10.220;2022-12-07T06:21:06;2.20;99.90
58469;DHT22;44257;44.804;10.220;2022-12-07T06:23:32;2.10;99.90
58469;DHT22;44257;44.804;10.220;2022-12-07T06:25:57;2.10;99.90
58469;DHT22;44257;44.804;10.220;2022-12-07T06:28:23;2.10;99.90
58469;DHT22;44257;44.804;10.220;2022-12-07T06:31:02;2.10;99.90
58469;DHT22;44257;44.804;10.220;2022-12-07T06:33:29;2.10;99.90
58469;DHT22;44257;44.804;10.220;2022-12-07T06:35:54;2.10;99.90
58469;DHT22;44257;44.804;10.220;2022-12-07T06:38:20;2.10;99.90
58469;DHT22;44257;44.804;10.220;2022-12-07T06:40:46;2.20;99.90
58469;DHT22;44257;44.804;10.220;2022-12-07T06:43:13;2.20;99.90
58469;DHT22;44257;44.804;10.220;2022-12-07T06:45:40;2.20;99.90
58469;DHT22;44257;44.804;10.220;2022-12-07T06:48:06;2.20;99.90
58469;DHT22;44257;44.804;10.220;2022-12-07T06:50:32;2.30;99.90
58469;DHT22;44257;44.804;10.220;2022-12-07T06:52:58;2.40;99.90
58469;DHT22;44257;44.804;10.220;2022-12-07T06:55:24;2.50;99.90
58469;DHT22;44257;44.804;10.220;2022-12-07T06:57:50;2.60;99.90
58469;DHT22;44257;44.804;10.220;2022-12-07T07:00:16;2.60;99.90
58469;DHT22;44257;44.804;10.220;2022-12-07T07:02:42;2.60;99.90
58469;DHT22;44257;44.804;10.220;2022-12-07T07:05:08;2.60;99.90
58469;DHT22;44257;44.804;10.220;2022-12-07T07:07:34;2.70;99.90
58469;DHT22;44257;44.804;10.220;2022-12-07T07:10:00;2.70;99.90
58469;DHT22;44257;44.804;10.220;2022-12-07T07:12:25;2.80;99.90
58469;DHT22;44257;44.804;10.220;2022-12-07T07:14:51;2.80;99.90
58469;DHT22;44257;44.804;10.220;2022-12-07T07:17:17;2.80;99.90
58469;DHT22;44257;44.804;10.220;2022-12-07T07:19:43;2.90;99.90
58469;DHT22;44257;44.804;10.220;2022-12-07T07:22:09;2.90;99.90
58469;DHT22;44257;44.804;10.220;2022-12-07T07:24:34;2.90;99.90
58469;DHT22;44257;44.804;10.220;2022-12-07T07:27:00;2.90;99.90
58469;DHT22;44257;44.804;10.220;2022-12-07T07:29:26;2.90;99.90
58469;DHT22;44257;44.804;10.220;2022-12-07T07:31:52;3.00;99.90
58469;DHT22;44257;44.804;10.220;2022-12-07T07:34:18;3.00;99.90
58469;DHT22;44257;44.804;10.220;2022-12-07T07:36:44;3.10;99.90
58469;DHT22;44257;44.804;10.220;2022-12-07T07:39:10;3.10;99.90
58469;DHT22;44257;44.804;10.220;2022-12-07T07:41:39;3.10;99.90
58469;DHT22;44257;44.804;10.220;2022-12-07T07:44:11;3.10;99.90
58469;DHT22;44257;44.804;10.220;2022-12-07T07:46:37;3.10;99.90
58469;DHT22;44257;44.804;10.220;2022-12-07T07:49:02;3.10;99.90
58469;DHT22;44257;44.804;10.220;2022-12-07T07:51:28;3.30;99.90
58469;DHT22;44257;44.804;10.220;2022-12-07T07:53:54;3.40;99.90
58469;DHT22;44257;44.804;10.220;2022-12-07T07:56:20;3.50;99.90
58469;DHT22;44257;44.804;10.220;2022-12-07T07:58:46;3.60;99.90
58469;DHT22;44257;44.804;10.220;2022-12-07T08:01:11;3.70;99.90
58469;DHT22;44257;44.804;10.220;2022-12-07T08:03:39;3.70;99.90
58469;DHT22;44257;44.804;10.220;2022-12-07T08:06:05;3.70;99.90
58469;DHT22;44257;44.804;10.220;2022-12-07T08:08:32;3.70;99.90
58469;DHT22;44257;44.804;10.220;2022-12-07T08:10:58;3.80;99.90
58469;DHT22;44257;44.804;10.220;2022-12-07T08:13:27;3.90;99.90
58469;DHT22;44257;44.804;10.220;2022-12-07T08:15:53;3.90;99.90
58469;DHT22;44257;44.804;10.220;2022-12-07T08:18:19;3.90;99.90
58469;DHT22;44257;44.804;10.220;2022-12-07T08:20:45;3.90;99.90
58469;DHT22;44257;44.804;10.220;2022-12-07T08:23:11;3.80;99.90
58469;DHT22;44257;44.804;10.220;2022-12-07T08:25:37;3.80;99.90
58469;DHT22;44257;44.804;10.220;2022-12-07T08:28:03;3.80;99.90
58469;DHT22;44257;44.804;10.220;2022-12-07T08:30:30;3.90;99.90
58469;DHT22;44257;44.804;10.220;2022-12-07T08:32:57;4.00;99.90
58469;DHT22;44257;44.804;10.220;2022-12-07T08:35:23;4.10;99.90
58469;DHT22;44257;44.804;10.220;2022-12-07T08:37:49;4.10;99.90
58469;DHT22;44257;44.804;10.220;2022-12-07T08:40:15;4.10;99.90
58469;DHT22;44257;44.804;10.220;2022-12-07T08:42:49;4.10;99.90
58469;DHT22;44257;44.804;10.220;2022-12-07T08:45:16;4.20;99.90
58469;DHT22;44257;44.804;10.220;2022-12-07T08:48:05;4.10;99.90
58469;DHT22;44257;44.804;10.220;2022-12-07T08:50:32;4.20;99.90
58469;DHT22;44257;44.804;10.220;2022-12-07T08:53:00;4.10;99.90
58469;DHT22;44257;44.804;10.220;2022-12-07T08:55:27;4.10;99.90
58469;DHT22;44257;44.804;10.220;2022-12-07T08:57:54;4.10;99.90
58469;DHT22;44257;44.804;10.220;2022-12-07T09:00:21;4.20;99.90
58469;DHT22;44257;44.804;10.220;2022-12-07T09:02:46;4.20;99.90
58469;DHT22;44257;44.804;10.220;2022-12-07T09:05:13;4.20;99.90
58469;DHT22;44257;44.804;10.220;2022-12-07T09:07:41;4.30;99.90
58469;DHT22;44257;44.804;10.220;2022-12-07T09:10:07;4.30;99.90
58469;DHT22;44257;44.804;10.220;2022-12-07T09:12:33;4.40;99.90
58469;DHT22;44257;44.804;10.220;2022-12-07T09:14:59;4.50;99.90
58469;DHT22;44257;44.804;10.220;2022-12-07T09:17:26;4.50;99.90
58469;DHT22;44257;44.804;10.220;2022-12-07T09:19:52;4.60;99.90
58469;DHT22;44257;44.804;10.220;2022-12-07T09:22:18;4.60;99.90
58469;DHT22;44257;44.804;10.220;2022-12-07T09:24:44;4.70;99.90
58469;DHT22;44257;44.804;10.220;2022-12-07T09:27:11;4.70;99.90
58469;DHT22;44257;44.804;10.220;2022-12-07T09:29:37;4.60;99.90
58469;DHT22;44257;44.804;10.220;2022-12-07T09:32:03;4.60;99.90
58469;DHT22;44257;44.804;10.220;2022-12-07T09:34:31;4.60;99.90
58469;DHT22;44257;44.804;10.220;2022-12-07T09:36:57;4.60;99.90
58469;DHT22;44257;44.804;10.220;2022-12-07T09:39:23;4.60;99.90
58469;DHT22;44257;44.804;10.220;2022-12-07T09:41:49;4.60;99.90
58469;DHT22;44257;44.804;10.220;2022-12-07T09:44:23;4.70;99.90
58469;DHT22;44257;44.804;10.220;2022-12-07T09:46:50;4.70;99.90
58469;DHT22;44257;44.804;10.220;2022-12-07T09:49:23;4.80;99.90
58469;DHT22;44257;44.804;10.220;2022-12-07T09:54:36;5.00;99.90
58469;DHT22;44257;44.804;10.220;2022-12-07T09:57:04;5.20;99.90
58469;DHT22;44257;44.804;10.220;2022-12-07T09:59:30;5.40;99.90
58469;DHT22;44257;44.804;10.220;2022-12-07T10:04:48;5.80;99.90
58469;DHT22;44257;44.804;10.220;2022-12-07T10:07:14;6.00;99.90
58469;DHT22;44257;44.804;10.220;2022-12-07T10:09:39;6.20;99.90
58469;DHT22;44257;44.804;10.220;2022-12-07T10:12:08;6.30;99.90
58469;DHT22;44257;44.804;10.220;2022-12-07T10:14:38;6.30;99.90
58469;DHT22;44257;44.804;10.220;2022-12-07T10:17:29;6.40;99.90
58469;DHT22;44257;44.804;10.220;2022-12-07T10:20:16;6.40;99.90
58469;DHT22;44257;44.804;10.220;2022-12-07T10:23:00;6.50;99.90
58469;DHT22;44257;44.804;10.220;2022-12-07T10:25:29;6.50;99.90
58469;DHT22;44257;44.804;10.220;2022-12-07T10:28:18;6.60;99.90
58469;DHT22;44257;44.804;10.220;2022-12-07T10:31:01;6.70;99.90
58469;DHT22;44257;44.804;10.220;2022-12-07T10:33:58;6.70;99.90
58469;DHT22;44257;44.804;10.220;2022-12-07T10:36:36;6.80;99.90
58469;DHT22;44257;44.804;10.220;2022-12-07T10:39:11;6.70;99.90
58469;DHT22;44257;44.804;10.220;2022-12-07T10:42:04;6.50;99.90
58469;DHT22;44257;44.804;10.220;2022-12-07T10:44:33;6.30;99.90
58469;DHT22;44257;44.804;10.220;2022-12-07T11:00:25;5.80;99.90
58469;DHT22;44257;44.804;10.220;2022-12-07T11:05:44;5.80;99.90
58469;DHT22;44257;44.804;10.220;2022-12-07T11:11:33;5.80;99.90
58469;DHT22;44257;44.804;10.220;2022-12-07T11:16:56;5.90;99.90
58469;DHT22;44257;44.804;10.220;2022-12-07T11:24:36;6.00;99.90
58469;DHT22;44257;44.804;10.220;2022-12-07T11:27:19;5.90;99.90
58469;DHT22;44257;44.804;10.220;2022-12-07T11:34:58;5.60;99.90
58469;DHT22;44257;44.804;10.220;2022-12-07T11:37:31;5.60;99.90
58469;DHT22;44257;44.804;10.220;2022-12-07T11:42:41;5.40;99.90
58469;DHT22;44257;44.804;10.220;2022-12-07T11:45:25;5.30;99.90
58469;DHT22;44257;44.804;10.220;2022-12-07T11:48:12;5.40;99.90
58469;DHT22;44257;44.804;10.220;2022-12-07T11:50:52;5.40;99.90
58469;DHT22;44257;44.804;10.220;2022-12-07T11:53:20;5.40;99.90
58469;DHT22;44257;44.804;10.220;2022-12-07T11:56:06;5.50;99.90
58469;DHT22;44257;44.804;10.220;2022-12-07T12:07:23;5.70;99.90
58469;DHT22;44257;44.804;10.220;2022-12-07T12:18:12;5.30;99.90
58469;DHT22;44257;44.804;10.220;2022-12-07T12:20:51;5.20;99.90
58469;DHT22;44257;44.804;10.220;2022-12-07T12:23:49;5.00;99.90
58469;DHT22;44257;44.804;10.220;2022-12-07T12:26:20;4.90;99.90
58469;DHT22;44257;44.804;10.220;2022-12-07T12:28:58;4.90;99.90
58469;DHT22;44257;44.804;10.220;2022-12-07T12:31:39;4.90;99.90
58469;DHT22;44257;44.804;10.220;2022-12-07T12:34:30;4.80;99.90
58469;DHT22;44257;44.804;10.220;2022-12-07T12:36:56;4.80;99.90
58469;DHT22;44257;44.804;10.220;2022-12-07T12:39:22;4.70;99.90
58469;DHT22;44257;44.804;10.220;2022-12-07T12:46:50;4.70;99.90
58469;DHT22;44257;44.804;10.220;2022-12-07T12:51:57;4.70;99.90
58469;DHT22;44257;44.804;10.220;2022-12-07T12:54:30;4.60;99.90
58469;DHT22;44257;44.804;10.220;2022-12-07T13:02:47;4.60;99.90
58469;DHT22;44257;44.804;10.220;2022-12-07T13:12:57;4.70;99.90
58469;DHT22;44257;44.804;10.220;2022-12-07T13:15:46;4.80;99.90
58469;DHT22;44257;44.804;10.220;2022-12-07T13:29:04;4.90;99.90
58469;DHT22;44257;44.804;10.220;2022-12-07T13:31:34;4.80;99.90
58469;DHT22;44257;44.804;10.220;2022-12-07T13:34:02;4.70;99.90
58469;DHT22;44257;44.804;10.220;2022-12-07T13:36:39;4.60;99.90
58469;DHT22;44257;44.804;10.220;2022-12-07T13:39:18;4.60;99.90
58469;DHT22;44257;44.804;10.220;2022-12-07T13:41:50;4.70;99.90
58469;DHT22;44257;44.804;10.220;2022-12-07T13:44:18;4.90;99.90
58469;DHT22;44257;44.804;10.220;2022-12-07T13:49:37;5.10;99.90
58469;DHT22;44257;44.804;10.220;2022-12-07T13:52:32;5.00;99.90
58469;DHT22;44257;44.804;10.220;2022-12-07T13:54:59;4.90;99.90
58469;DHT22;44257;44.804;10.220;2022-12-07T13:57:27;4.80;99.90
58469;DHT22;44257;44.804;10.220;2022-12-07T13:59:54;4.70;99.90
58469;DHT22;44257;44.804;10.220;2022-12-07T14:02:22;4.70;99.90
58469;DHT22;44257;44.804;10.220;2022-12-07T14:04:49;4.80;99.90
58469;DHT22;44257;44.804;10.220;2022-12-07T14:07:25;4.80;99.90
58469;DHT22;44257;44.804;10.220;2022-12-07T14:10:03;4.80;99.90
58469;DHT22;44257;44.804;10.220;2022-12-07T14:12:31;4.80;99.90
58469;DHT22;44257;44.804;10.220;2022-12-07T14:14:58;4.70;99.90
58469;DHT22;44257;44.804;10.220;2022-12-07T14:17:26;4.70;99.90
58469;DHT22;44257;44.804;10.220;2022-12-07T14:20:00;4.80;99.90
58469;DHT22;44257;44.804;10.220;2022-12-07T14:22:37;4.70;99.90
58469;DHT22;44257;44.804;10.220;2022-12-07T14:27:39;4.60;99.90
58469;DHT22;44257;44.804;10.220;2022-12-07T14:30:16;4.60;99.90
58469;DHT22;44257;44.804;10.220;2022-12-07T14:32:43;4.60;99.90
58469;DHT22;44257;44.804;10.220;2022-12-07T14:35:16;4.60;99.90
58469;DHT22;44257;44.804;10.220;2022-12-07T14:37:44;4.60;99.90
58469;DHT22;44257;44.804;10.220;2022-12-07T14:40:16;4.60;99.90
58469;DHT22;44257;44.804;10.220;2022-12-07T14:42:44;4.60;99.90
58469;DHT22;44257;44.804;10.220;2022-12-07T14:45:22;4.60;99.90
58469;DHT22;44257;44.804;10.220;2022-12-07T14:47:48;4.60;99.90
58469;DHT22;44257;44.804;10.220;2022-12-07T14:50:17;4.60;99.90
58469;DHT22;44257;44.804;10.220;2022-12-07T14:52:52;4.60;99.90
58469;DHT22;44257;44.804;10.220;2022-12-07T14:55:28;4.60;99.90
58469;DHT22;44257;44.804;10.220;2022-12-07T14:57:54;4.60;99.90
58469;DHT22;44257;44.804;10.220;2022-12-07T15:00:22;4.60;99.90
58469;DHT22;44257;44.804;10.220;2022-12-07T15:02:49;4.60;99.90
58469;DHT22;44257;44.804;10.220;2022-12-07T15:05:16;4.60;99.90
58469;DHT22;44257;44.804;10.220;2022-12-07T15:07:42;4.70;99.90
58469;DHT22;44257;44.804;10.220;2022-12-07T15:10:18;4.70;99.90
58469;DHT22;44257;44.804;10.220;2022-12-07T15:12:45;4.50;99.90
58469;DHT22;44257;44.804;10.220;2022-12-07T15:15:12;4.50;99.90
58469;DHT22;44257;44.804;10.220;2022-12-07T15:17:38;4.60;99.90
58469;DHT22;44257;44.804;10.220;2022-12-07T15:20:05;4.60;99.90
58469;DHT22;44257;44.804;10.220;2022-12-07T15:22:31;4.60;99.90
58469;DHT22;44257;44.804;10.220;2022-12-07T15:24:57;4.60;99.90
58469;DHT22;44257;44.804;10.220;2022-12-07T15:27:23;4.60;99.90
58469;DHT22;44257;44.804;10.220;2022-12-07T15:29:49;4.50;99.90
58469;DHT22;44257;44.804;10.220;2022-12-07T15:32:15;4.40;99.90
58469;DHT22;44257;44.804;10.220;2022-12-07T15:34:42;4.40;99.90
58469;DHT22;44257;44.804;10.220;2022-12-07T15:37:08;4.30;99.90
58469;DHT22;44257;44.804;10.220;2022-12-07T15:39:36;4.30;99.90
58469;DHT22;44257;44.804;10.220;2022-12-07T15:42:15;4.30;99.90
58469;DHT22;44257;44.804;10.220;2022-12-07T15:44:40;4.40;99.90
58469;DHT22;44257;44.804;10.220;2022-12-07T15:47:25;4.30;99.90
58469;DHT22;44257;44.804;10.220;2022-12-07T15:49:52;4.40;99.90
58469;DHT22;44257;44.804;10.220;2022-12-07T15:52:18;4.40;99.90
58469;DHT22;44257;44.804;10.220;2022-12-07T15:54:44;4.40;99.90
58469;DHT22;44257;44.804;10.220;2022-12-07T15:57:10;4.40;99.90
58469;DHT22;44257;44.804;10.220;2022-12-07T15:59:36;4.40;99.90
58469;DHT22;44257;44.804;10.220;2022-12-07T16:02:02;4.40;99.90
58469;DHT22;44257;44.804;10.220;2022-12-07T16:04:28;4.40;99.90
58469;DHT22;44257;44.804;10.220;2022-12-07T16:06:55;4.40;99.90
58469;DHT22;44257;44.804;10.220;2022-12-07T16:09:22;4.30;99.90
58469;DHT22;44257;44.804;10.220;2022-12-07T16:11:48;4.30;99.90
58469;DHT22;44257;44.804;10.220;2022-12-07T16:14:15;4.20;99.90
58469;DHT22;44257;44.804;10.220;2022-12-07T16:16:41;4.20;99.90
58469;DHT22;44257;44.804;10.220;2022-12-07T16:19:08;4.10;99.90
58469;DHT22;44257;44.804;10.220;2022-12-07T16:21:34;4.00;99.90
58469;DHT22;44257;44.804;10.220;2022-12-07T16:24:01;4.00;99.90
58469;DHT22;44257;44.804;10.220;2022-12-07T16:26:27;3.90;99.90
58469;DHT22;44257;44.804;10.220;2022-12-07T16:28:54;3.90;99.90
58469;DHT22;44257;44.804;10.220;2022-12-07T16:31:23;3.90;99.90
58469;DHT22;44257;44.804;10.220;2022-12-07T16:33:50;3.90;99.90
58469;DHT22;44257;44.804;10.220;2022-12-07T16:36:17;3.80;99.90
58469;DHT22;44257;44.804;10.220;2022-12-07T16:38:44;3.80;99.90
58469;DHT22;44257;44.804;10.220;2022-12-07T16:41:10;3.80;99.90
58469;DHT22;44257;44.804;10.220;2022-12-07T16:43:37;3.80;99.90
58469;DHT22;44257;44.804;10.220;2022-12-07T16:46:03;3.80;99.90
58469;DHT22;44257;44.804;10.220;2022-12-07T16:48:30;3.80;99.90
58469;DHT22;44257;44.804;10.220;2022-12-07T16:50:56;3.80;99.90
58469;DHT22;44257;44.804;10.220;2022-12-07T16:53:23;3.90;99.90
58469;DHT22;44257;44.804;10.220;2022-12-07T16:55:50;3.90;99.90
58469;DHT22;44257;44.804;10.220;2022-12-07T16:58:16;3.90;99.90
58469;DHT22;44257;44.804;10.220;2022-12-07T17:00:43;3.90;99.90
58469;DHT22;44257;44.804;10.220;2022-12-07T17:03:10;4.00;99.90
58469;DHT22;44257;44.804;10.220;2022-12-07T17:05:40;3.90;99.90
58469;DHT22;44257;44.804;10.220;2022-12-07T17:08:06;3.80;99.90
58469;DHT22;44257;44.804;10.220;2022-12-07T17:10:34;3.90;99.90
58469;DHT22;44257;44.804;10.220;2022-12-07T17:13:01;3.90;99.90
58469;DHT22;44257;44.804;10.220;2022-12-07T17:15:27;4.00;99.90
58469;DHT22;44257;44.804;10.220;2022-12-07T17:17:57;4.00;99.90
58469;DHT22;44257;44.804;10.220;2022-12-07T17:20:27;4.00;99.90
58469;DHT22;44257;44.804;10.220;2022-12-07T17:22:53;4.00;99.90
58469;DHT22;44257;44.804;10.220;2022-12-07T17:25:19;4.00;99.90
58469;DHT22;44257;44.804;10.220;2022-12-07T17:27:46;4.10;99.90
58469;DHT22;44257;44.804;10.220;2022-12-07T17:30:13;4.10;99.90
58469;DHT22;44257;44.804;10.220;2022-12-07T17:32:39;4.10;99.90
58469;DHT22;44257;44.804;10.220;2022-12-07T17:35:05;4.10;99.90
58469;DHT22;44257;44.804;10.220;2022-12-07T17:37:31;4.10;99.90
58469;DHT22;44257;44.804;10.220;2022-12-07T17:39:57;4.10;99.90
58469;DHT22;44257;44.804;10.220;2022-12-07T17:42:27;4.10;99.90
58469;DHT22;44257;44.804;10.220;2022-12-07T17:45:09;4.00;99.90
58469;DHT22;44257;44.804;10.220;2022-12-07T17:47:36;4.10;99.90
58469;DHT22;44257;44.804;10.220;2022-12-07T17:50:04;4.10;99.90
58469;DHT22;44257;44.804;10.220;2022-12-07T17:52:30;4.20;99.90
58469;DHT22;44257;44.804;10.220;2022-12-07T17:55:15;4.20;99.90
58469;DHT22;44257;44.804;10.220;2022-12-07T17:57:40;4.20;99.90